sensor_id;sensor_type;location;lat;lon;timestamp;P1;durP1;ratioP1;P2;durP2;ratioP2
16954;SDS011;8594;52.052;8.354;2022-12-07T00:00:54;30.93;;;17.93;;
16954;SDS011;8594;52.052;8.354;2022-12-07T00:03:21;31.57;;;17.57;;
16954;SDS011;8594;52.052;8.354;2022-12-07T00:05:48;37.50;;;18.73;;
16954;SDS011;8594;52.052;8.354;2022-12-07T00:08:15;32.23;;;17.87;;
16954;SDS011;8594;52.052;8.354;2022-12-07T00:10:42;38.53;;;18.77;;
16954;SDS011;8594;52.052;8.354;2022-12-07T00:13:09;36.13;;;18.10;;
16954;SDS011;8594;52.052;8.354;2022-12-07T00:15:37;40.90;;;20.30;;
16954;SDS011;8594;52.052;8.354;2022-12-07T00:18:04;38.17;;;19.73;;
16954;SDS011;8594;52.052;8.354;2022-12-07T00:20:31;34.70;;;18.00;;
16954;SDS011;8594;52.052;8.354;2022-12-07T00:22:58;44.27;;;20.80;;
16954;SDS011;8594;52.052;8.354;2022-12-07T00:25:25;39.77;;;20.17;;
16954;SDS011;8594;52.052;8.354;2022-12-07T00:27:52;39.73;;;19.23;;
16954;SDS011;8594;52.052;8.354;2022-12-07T00:30:21;41.97;;;21.07;;
16954;SDS011;8594;52.052;8.354;2022-12-07T00:32:50;49.27;;;21.73;;
16954;SDS011;8594;52.052;8.354;2022-12-07T00:35:17;45.83;;;22.53;;
16954;SDS011;8594;52.052;8.354;2022-12-07T00:37:44;46.23;;;22.07;;
16954;SDS011;8594;52.052;8.354;2022-12-07T00:40:11;43.80;;;21.60;;
16954;SDS011;8594;52.052;8.354;2022-12-07T00:42:38;39.33;;;21.90;;
16954;SDS011;8594;52.052;8.354;2022-12-07T00:45:06;43.73;;;22.17;;
16954;SDS011;8594;52.052;8.354;2022-12-07T00:47:34;44.90;;;21.10;;
16954;SDS011;8594;52.052;8.354;2022-12-07T00:50:03;39.57;;;20.27;;
16954;SDS011;8594;52.052;8.354;2022-12-07T00:52:31;38.03;;;19.63;;
16954;SDS011;8594;52.052;8.354;2022-12-07T00:54:58;40.77;;;21.07;;
16954;SDS011;8594;52.052;8.354;2022-12-07T00:57:25;42.43;;;21.17;;
16954;SDS011;8594;52.052;8.354;2022-12-07T00:59:51;34.80;;;19.53;;
16954;SDS011;8594;52.052;8.354;2022-12-07T01:02:20;36.40;;;20.20;;
16954;SDS011;8594;52.052;8.354;2022-12-07T01:04:47;38.23;;;20.47;;
16954;SDS011;8594;52.052;8.354;2022-12-07T01:07:15;39.23;;;20.13;;
16954;SDS011;8594;52.052;8.354;2022-12-07T01:09:42;36.60;;;19.73;;
16954;SDS011;8594;52.052;8.354;2022-12-07T01:12:09;39.63;;;20.90;;
16954;SDS011;8594;52.052;8.354;2022-12-07T01:14:36;36.23;;;19.07;;
16954;SDS011;8594;52.052;8.354;2022-12-07T01:17:03;35.57;;;18.73;;
16954;SDS011;8594;52.052;8.354;2022-12-07T01:19:30;32.97;;;18.10;;
16954;SDS011;8594;52.052;8.354;2022-12-07T01:21:57;31.07;;;18.37;;
16954;SDS011;8594;52.052;8.354;2022-12-07T01:24:25;32.53;;;17.87;;
16954;SDS011;8594;52.052;8.354;2022-12-07T01:26:52;32.27;;;17.93;;
16954;SDS011;8594;52.052;8.354;2022-12-07T01:29:19;33.07;;;17.23;;
16954;SDS011;8594;52.052;8.354;2022-12-07T01:31:48;29.37;;;17.13;;
16954;SDS011;8594;52.052;8.354;2022-12-07T01:34:15;27.67;;;16.40;;
16954;SDS011;8594;52.052;8.354;2022-12-07T01:36:42;27.23;;;15.67;;
16954;SDS011;8594;52.052;8.354;2022-12-07T01:39:09;26.23;;;15.17;;
16954;SDS011;8594;52.052;8.354;2022-12-07T01:41:38;24.90;;;14.97;;
16954;SDS011;8594;52.052;8.354;2022-12-07T01:44:12;24.53;;;13.40;;
16954;SDS011;8594;52.052;8.354;2022-12-07T01:46:51;24.27;;;13.10;;
16954;SDS011;8594;52.052;8.354;2022-12-07T01:49:30;26.43;;;14.67;;
16954;SDS011;8594;52.052;8.354;2022-12-07T01:52:09;28.70;;;13.97;;
16954;SDS011;8594;52.052;8.354;2022-12-07T01:54:42;22.57;;;12.97;;
16954;SDS011;8594;52.052;8.354;2022-12-07T01:57:13;23.77;;;12.33;;
16954;SDS011;8594;52.052;8.354;2022-12-07T01:59:42;21.00;;;12.70;;
16954;SDS011;8594;52.052;8.354;2022-12-07T02:02:13;26.50;;;13.57;;
16954;SDS011;8594;52.052;8.354;2022-12-07T02:04:46;21.57;;;12.43;;
16954;SDS011;8594;52.052;8.354;2022-12-07T02:07:13;23.87;;;13.13;;
16954;SDS011;8594;52.052;8.354;2022-12-07T02:09:41;22.87;;;11.87;;
16954;SDS011;8594;52.052;8.354;2022-12-07T02:12:08;24.47;;;13.33;;
16954;SDS011;8594;52.052;8.354;2022-12-07T02:14:36;24.20;;;12.50;;
16954;SDS011;8594;52.052;8.354;2022-12-07T02:17:06;25.93;;;12.23;;
16954;SDS011;8594;52.052;8.354;2022-12-07T02:20:00;23.57;;;12.07;;
16954;SDS011;8594;52.052;8.354;2022-12-07T02:22:51;19.27;;;12.30;;
16954;SDS011;8594;52.052;8.354;2022-12-07T02:25:44;19.67;;;11.40;;
16954;SDS011;8594;52.052;8.354;2022-12-07T02:28:51;18.13;;;10.37;;
16954;SDS011;8594;52.052;8.354;2022-12-07T02:31:38;22.90;;;10.63;;
16954;SDS011;8594;52.052;8.354;2022-12-07T02:34:16;21.50;;;10.13;;
16954;SDS011;8594;52.052;8.354;2022-12-07T02:36:52;19.37;;;10.13;;
16954;SDS011;8594;52.052;8.354;2022-12-07T02:39:28;17.43;;;9.60;;
16954;SDS011;8594;52.052;8.354;2022-12-07T02:42:05;20.87;;;9.57;;
16954;SDS011;8594;52.052;8.354;2022-12-07T02:44:42;18.27;;;9.10;;
16954;SDS011;8594;52.052;8.354;2022-12-07T02:47:12;20.90;;;8.70;;
16954;SDS011;8594;52.052;8.354;2022-12-07T02:49:43;14.63;;;8.03;;
16954;SDS011;8594;52.052;8.354;2022-12-07T02:52:11;16.80;;;8.47;;
16954;SDS011;8594;52.052;8.354;2022-12-07T02:54:38;17.90;;;9.30;;
16954;SDS011;8594;52.052;8.354;2022-12-07T02:57:08;17.23;;;8.23;;
16954;SDS011;8594;52.052;8.354;2022-12-07T03:00:00;13.63;;;7.60;;
16954;SDS011;8594;52.052;8.354;2022-12-07T03:02:35;14.70;;;8.17;;
16954;SDS011;8594;52.052;8.354;2022-12-07T03:05:20;17.03;;;7.47;;
16954;SDS011;8594;52.052;8.354;2022-12-07T03:08:31;16.50;;;7.60;;
16954;SDS011;8594;52.052;8.354;2022-12-07T03:11:14;24.87;;;8.80;;
16954;SDS011;8594;52.052;8.354;2022-12-07T03:13:51;15.30;;;8.27;;
16954;SDS011;8594;52.052;8.354;2022-12-07T03:16:30;21.87;;;8.87;;
16954;SDS011;8594;52.052;8.354;2022-12-07T03:19:05;16.90;;;9.03;;
16954;SDS011;8594;52.052;8.354;2022-12-07T03:21:39;14.00;;;8.60;;
16954;SDS011;8594;52.052;8.354;2022-12-07T03:24:14;13.17;;;8.63;;
16954;SDS011;8594;52.052;8.354;2022-12-07T03:26:46;18.57;;;9.63;;
16954;SDS011;8594;52.052;8.354;2022-12-07T03:29:17;20.17;;;8.87;;
16954;SDS011;8594;52.052;8.354;2022-12-07T03:31:53;25.30;;;8.77;;
16954;SDS011;8594;52.052;8.354;2022-12-07T03:34:31;16.50;;;7.70;;
16954;SDS011;8594;52.052;8.354;2022-12-07T03:37:03;17.67;;;8.63;;
16954;SDS011;8594;52.052;8.354;2022-12-07T03:39:36;15.47;;;7.83;;
16954;SDS011;8594;52.052;8.354;2022-12-07T03:42:10;18.83;;;7.70;;
16954;SDS011;8594;52.052;8.354;2022-12-07T03:44:38;18.80;;;9.00;;
16954;SDS011;8594;52.052;8.354;2022-12-07T03:47:09;16.60;;;7.87;;
16954;SDS011;8594;52.052;8.354;2022-12-07T03:49:48;16.33;;;7.83;;
16954;SDS011;8594;52.052;8.354;2022-12-07T03:52:24;17.47;;;7.87;;
16954;SDS011;8594;52.052;8.354;2022-12-07T03:54:59;16.10;;;8.03;;
16954;SDS011;8594;52.052;8.354;2022-12-07T03:57:33;18.17;;;8.33;;
16954;SDS011;8594;52.052;8.354;2022-12-07T04:00:03;17.90;;;8.57;;
16954;SDS011;8594;52.052;8.354;2022-12-07T04:02:34;12.30;;;7.67;;
16954;SDS011;8594;52.052;8.354;2022-12-07T04:05:02;14.93;;;7.50;;
16954;SDS011;8594;52.052;8.354;2022-12-07T04:07:30;23.10;;;8.60;;
16954;SDS011;8594;52.052;8.354;2022-12-07T04:09:57;12.57;;;7.47;;
16954;SDS011;8594;52.052;8.354;2022-12-07T04:12:24;16.57;;;7.83;;
16954;SDS011;8594;52.052;8.354;2022-12-07T04:14:52;18.40;;;7.73;;
16954;SDS011;8594;52.052;8.354;2022-12-07T04:17:18;17.63;;;8.20;;
16954;SDS011;8594;52.052;8.354;2022-12-07T04:19:47;16.70;;;7.10;;
16954;SDS011;8594;52.052;8.354;2022-12-07T04:22:14;16.33;;;7.63;;
16954;SDS011;8594;52.052;8.354;2022-12-07T04:24:40;21.40;;;7.83;;
16954;SDS011;8594;52.052;8.354;2022-12-07T04:27:07;17.10;;;7.10;;
16954;SDS011;8594;52.052;8.354;2022-12-07T04:29:34;17.80;;;7.30;;
16954;SDS011;8594;52.052;8.354;2022-12-07T04:32:01;18.40;;;7.47;;
16954;SDS011;8594;52.052;8.354;2022-12-07T04:34:28;19.40;;;7.63;;
16954;SDS011;8594;52.052;8.354;2022-12-07T04:36:56;14.33;;;7.70;;
16954;SDS011;8594;52.052;8.354;2022-12-07T04:39:25;14.60;;;7.23;;
16954;SDS011;8594;52.052;8.354;2022-12-07T04:41:55;18.80;;;7.03;;
16954;SDS011;8594;52.052;8.354;2022-12-07T04:44:24;20.33;;;7.27;;
16954;SDS011;8594;52.052;8.354;2022-12-07T04:46:52;18.53;;;6.73;;
16954;SDS011;8594;52.052;8.354;2022-12-07T04:49:20;16.63;;;7.03;;
16954;SDS011;8594;52.052;8.354;2022-12-07T04:51:47;12.73;;;6.80;;
16954;SDS011;8594;52.052;8.354;2022-12-07T04:54:16;16.00;;;7.10;;
16954;SDS011;8594;52.052;8.354;2022-12-07T04:56:44;15.57;;;6.70;;
16954;SDS011;8594;52.052;8.354;2022-12-07T04:59:11;16.77;;;7.13;;
16954;SDS011;8594;52.052;8.354;2022-12-07T05:01:40;20.03;;;7.40;;
16954;SDS011;8594;52.052;8.354;2022-12-07T05:04:07;19.30;;;7.70;;
16954;SDS011;8594;52.052;8.354;2022-12-07T05:06:35;21.47;;;7.43;;
16954;SDS011;8594;52.052;8.354;2022-12-07T05:09:02;16.50;;;7.87;;
16954;SDS011;8594;52.052;8.354;2022-12-07T05:11:31;15.80;;;6.83;;
16954;SDS011;8594;52.052;8.354;2022-12-07T05:14:05;16.60;;;7.17;;
16954;SDS011;8594;52.052;8.354;2022-12-07T05:16:35;17.83;;;7.57;;
16954;SDS011;8594;52.052;8.354;2022-12-07T05:19:03;14.53;;;7.27;;
16954;SDS011;8594;52.052;8.354;2022-12-07T05:21:31;16.47;;;6.97;;
16954;SDS011;8594;52.052;8.354;2022-12-07T05:23:58;13.63;;;6.63;;
16954;SDS011;8594;52.052;8.354;2022-12-07T05:26:25;21.27;;;7.50;;
16954;SDS011;8594;52.052;8.354;2022-12-07T05:28:54;17.77;;;6.77;;
16954;SDS011;8594;52.052;8.354;2022-12-07T05:31:22;16.97;;;7.17;;
16954;SDS011;8594;52.052;8.354;2022-12-07T05:33:51;16.50;;;6.47;;
16954;SDS011;8594;52.052;8.354;2022-12-07T05:36:18;18.10;;;6.70;;
16954;SDS011;8594;52.052;8.354;2022-12-07T05:38:45;14.00;;;6.80;;
16954;SDS011;8594;52.052;8.354;2022-12-07T05:41:14;21.50;;;7.10;;
16954;SDS011;8594;52.052;8.354;2022-12-07T05:44:02;14.30;;;6.60;;
16954;SDS011;8594;52.052;8.354;2022-12-07T05:46:30;20.37;;;6.70;;
16954;SDS011;8594;52.052;8.354;2022-12-07T05:48:57;16.37;;;6.90;;
16954;SDS011;8594;52.052;8.354;2022-12-07T05:51:24;16.73;;;7.50;;
16954;SDS011;8594;52.052;8.354;2022-12-07T05:53:51;20.13;;;8.80;;
16954;SDS011;8594;52.052;8.354;2022-12-07T05:56:18;15.00;;;6.90;;
16954;SDS011;8594;52.052;8.354;2022-12-07T05:58:45;14.47;;;6.17;;
16954;SDS011;8594;52.052;8.354;2022-12-07T06:01:31;13.43;;;6.50;;
16954;SDS011;8594;52.052;8.354;2022-12-07T06:03:58;22.33;;;7.20;;
16954;SDS011;8594;52.052;8.354;2022-12-07T06:06:25;20.60;;;11.37;;
16954;SDS011;8594;52.052;8.354;2022-12-07T06:08:52;15.17;;;8.23;;
16954;SDS011;8594;52.052;8.354;2022-12-07T06:11:19;16.00;;;6.60;;
16954;SDS011;8594;52.052;8.354;2022-12-07T06:14:03;14.37;;;6.70;;
16954;SDS011;8594;52.052;8.354;2022-12-07T06:16:32;16.17;;;7.27;;
16954;SDS011;8594;52.052;8.354;2022-12-07T06:18:58;15.90;;;6.77;;
16954;SDS011;8594;52.052;8.354;2022-12-07T06:21:25;21.93;;;6.90;;
16954;SDS011;8594;52.052;8.354;2022-12-07T06:23:52;13.97;;;7.10;;
16954;SDS011;8594;52.052;8.354;2022-12-07T06:26:20;15.07;;;7.03;;
16954;SDS011;8594;52.052;8.354;2022-12-07T06:28:47;18.00;;;7.73;;
16954;SDS011;8594;52.052;8.354;2022-12-07T06:31:14;19.70;;;8.47;;
16954;SDS011;8594;52.052;8.354;2022-12-07T06:33:42;14.47;;;6.67;;
16954;SDS011;8594;52.052;8.354;2022-12-07T06:36:09;13.07;;;6.53;;
16954;SDS011;8594;52.052;8.354;2022-12-07T06:38:37;12.60;;;5.63;;
16954;SDS011;8594;52.052;8.354;2022-12-07T06:41:04;21.63;;;7.17;;
16954;SDS011;8594;52.052;8.354;2022-12-07T06:43:31;17.17;;;5.77;;
16954;SDS011;8594;52.052;8.354;2022-12-07T06:45:58;19.83;;;7.27;;
16954;SDS011;8594;52.052;8.354;2022-12-07T06:48:25;19.20;;;7.63;;
16954;SDS011;8594;52.052;8.354;2022-12-07T06:50:54;14.50;;;8.17;;
16954;SDS011;8594;52.052;8.354;2022-12-07T06:53:21;19.47;;;7.47;;
16954;SDS011;8594;52.052;8.354;2022-12-07T06:55:48;16.77;;;5.73;;
16954;SDS011;8594;52.052;8.354;2022-12-07T06:58:16;13.53;;;6.67;;
16954;SDS011;8594;52.052;8.354;2022-12-07T07:00:43;11.83;;;5.10;;
16954;SDS011;8594;52.052;8.354;2022-12-07T07:03:11;10.40;;;5.73;;
16954;SDS011;8594;52.052;8.354;2022-12-07T07:05:38;13.37;;;5.57;;
16954;SDS011;8594;52.052;8.354;2022-12-07T07:08:06;14.17;;;5.67;;
16954;SDS011;8594;52.052;8.354;2022-12-07T07:10:34;11.33;;;5.20;;
16954;SDS011;8594;52.052;8.354;2022-12-07T07:13:01;21.47;;;6.87;;
16954;SDS011;8594;52.052;8.354;2022-12-07T07:15:29;16.03;;;5.60;;
16954;SDS011;8594;52.052;8.354;2022-12-07T07:17:57;14.57;;;6.00;;
16954;SDS011;8594;52.052;8.354;2022-12-07T07:20:24;15.20;;;5.10;;
16954;SDS011;8594;52.052;8.354;2022-12-07T07:22:53;14.00;;;5.33;;
16954;SDS011;8594;52.052;8.354;2022-12-07T07:25:22;11.93;;;4.90;;
16954;SDS011;8594;52.052;8.354;2022-12-07T07:27:49;11.80;;;4.80;;
16954;SDS011;8594;52.052;8.354;2022-12-07T07:30:16;11.17;;;5.07;;
16954;SDS011;8594;52.052;8.354;2022-12-07T07:32:43;11.60;;;4.90;;
16954;SDS011;8594;52.052;8.354;2022-12-07T07:35:10;15.47;;;5.60;;
16954;SDS011;8594;52.052;8.354;2022-12-07T07:37:39;11.93;;;5.77;;
16954;SDS011;8594;52.052;8.354;2022-12-07T07:40:06;15.63;;;5.70;;
16954;SDS011;8594;52.052;8.354;2022-12-07T07:42:35;13.20;;;5.13;;
16954;SDS011;8594;52.052;8.354;2022-12-07T07:45:02;12.33;;;6.60;;
16954;SDS011;8594;52.052;8.354;2022-12-07T07:47:30;15.37;;;4.73;;
16954;SDS011;8594;52.052;8.354;2022-12-07T07:49:57;13.80;;;4.63;;
16954;SDS011;8594;52.052;8.354;2022-12-07T07:52:25;15.43;;;5.20;;
16954;SDS011;8594;52.052;8.354;2022-12-07T07:54:52;10.60;;;5.37;;
16954;SDS011;8594;52.052;8.354;2022-12-07T07:57:19;14.23;;;5.37;;
16954;SDS011;8594;52.052;8.354;2022-12-07T07:59:47;9.13;;;4.73;;
16954;SDS011;8594;52.052;8.354;2022-12-07T08:02:14;10.97;;;5.27;;
16954;SDS011;8594;52.052;8.354;2022-12-07T08:04:44;14.90;;;4.67;;
16954;SDS011;8594;52.052;8.354;2022-12-07T08:07:12;11.90;;;5.10;;
16954;SDS011;8594;52.052;8.354;2022-12-07T08:09:41;17.73;;;7.73;;
16954;SDS011;8594;52.052;8.354;2022-12-07T08:12:08;12.53;;;6.33;;
16954;SDS011;8594;52.052;8.354;2022-12-07T08:14:35;12.90;;;5.07;;
16954;SDS011;8594;52.052;8.354;2022-12-07T08:17:03;15.97;;;4.40;;
16954;SDS011;8594;52.052;8.354;2022-12-07T08:19:30;10.90;;;4.73;;
16954;SDS011;8594;52.052;8.354;2022-12-07T08:21:57;9.13;;;5.00;;
16954;SDS011;8594;52.052;8.354;2022-12-07T08:24:24;10.93;;;4.27;;
16954;SDS011;8594;52.052;8.354;2022-12-07T08:26:51;14.67;;;4.17;;
16954;SDS011;8594;52.052;8.354;2022-12-07T08:29:18;18.53;;;4.20;;
16954;SDS011;8594;52.052;8.354;2022-12-07T08:31:46;11.27;;;3.57;;
16954;SDS011;8594;52.052;8.354;2022-12-07T08:34:14;12.57;;;4.20;;
16954;SDS011;8594;52.052;8.354;2022-12-07T08:36:42;13.77;;;3.33;;
16954;SDS011;8594;52.052;8.354;2022-12-07T08:39:09;10.07;;;3.27;;
16954;SDS011;8594;52.052;8.354;2022-12-07T08:41:36;15.10;;;4.27;;
16954;SDS011;8594;52.052;8.354;2022-12-07T08:44:03;14.57;;;3.77;;
16954;SDS011;8594;52.052;8.354;2022-12-07T08:46:31;13.90;;;3.33;;
16954;SDS011;8594;52.052;8.354;2022-12-07T08:49:05;15.87;;;3.87;;
16954;SDS011;8594;52.052;8.354;2022-12-07T08:51:39;10.67;;;4.27;;
16954;SDS011;8594;52.052;8.354;2022-12-07T08:54:08;11.73;;;3.80;;
16954;SDS011;8594;52.052;8.354;2022-12-07T08:56:39;11.67;;;4.50;;
16954;SDS011;8594;52.052;8.354;2022-12-07T08:59:07;9.20;;;3.50;;
16954;SDS011;8594;52.052;8.354;2022-12-07T09:01:34;9.73;;;3.60;;
16954;SDS011;8594;52.052;8.354;2022-12-07T09:04:01;9.07;;;4.00;;
16954;SDS011;8594;52.052;8.354;2022-12-07T09:06:28;10.93;;;3.67;;
16954;SDS011;8594;52.052;8.354;2022-12-07T09:08:57;8.07;;;3.07;;
16954;SDS011;8594;52.052;8.354;2022-12-07T09:11:26;12.37;;;3.70;;
16954;SDS011;8594;52.052;8.354;2022-12-07T09:13:53;8.97;;;3.50;;
16954;SDS011;8594;52.052;8.354;2022-12-07T09:16:20;16.77;;;3.83;;
16954;SDS011;8594;52.052;8.354;2022-12-07T09:18:47;6.80;;;2.60;;
16954;SDS011;8594;52.052;8.354;2022-12-07T09:21:13;9.73;;;3.10;;
16954;SDS011;8594;52.052;8.354;2022-12-07T09:23:40;10.57;;;3.63;;
16954;SDS011;8594;52.052;8.354;2022-12-07T09:26:09;10.87;;;3.43;;
16954;SDS011;8594;52.052;8.354;2022-12-07T09:28:37;14.00;;;3.40;;
16954;SDS011;8594;52.052;8.354;2022-12-07T09:31:04;12.90;;;3.80;;
16954;SDS011;8594;52.052;8.354;2022-12-07T09:33:32;13.43;;;3.57;;
16954;SDS011;8594;52.052;8.354;2022-12-07T09:35:59;8.97;;;3.13;;
16954;SDS011;8594;52.052;8.354;2022-12-07T09:38:26;9.17;;;3.13;;
16954;SDS011;8594;52.052;8.354;2022-12-07T09:40:54;10.03;;;3.00;;
16954;SDS011;8594;52.052;8.354;2022-12-07T09:43:23;8.57;;;3.17;;
16954;SDS011;8594;52.052;8.354;2022-12-07T09:45:52;5.20;;;2.70;;
16954;SDS011;8594;52.052;8.354;2022-12-07T09:48:22;9.97;;;3.03;;
16954;SDS011;8594;52.052;8.354;2022-12-07T09:50:55;10.80;;;2.67;;
16954;SDS011;8594;52.052;8.354;2022-12-07T09:53:26;8.80;;;3.00;;
16954;SDS011;8594;52.052;8.354;2022-12-07T09:55:59;8.93;;;3.80;;
16954;SDS011;8594;52.052;8.354;2022-12-07T09:58:29;12.47;;;3.07;;
16954;SDS011;8594;52.052;8.354;2022-12-07T10:00:59;10.20;;;3.10;;
16954;SDS011;8594;52.052;8.354;2022-12-07T10:03:39;11.17;;;3.13;;
16954;SDS011;8594;52.052;8.354;2022-12-07T10:06:13;9.20;;;2.80;;
16954;SDS011;8594;52.052;8.354;2022-12-07T10:08:40;11.37;;;3.40;;
16954;SDS011;8594;52.052;8.354;2022-12-07T10:11:08;6.23;;;2.50;;
16954;SDS011;8594;52.052;8.354;2022-12-07T10:13:38;8.73;;;2.70;;
16954;SDS011;8594;52.052;8.354;2022-12-07T10:16:24;8.83;;;3.40;;
16954;SDS011;8594;52.052;8.354;2022-12-07T10:19:17;6.53;;;2.60;;
16954;SDS011;8594;52.052;8.354;2022-12-07T10:24:43;14.70;;;3.93;;
16954;SDS011;8594;52.052;8.354;2022-12-07T10:27:19;14.50;;;2.60;;
16954;SDS011;8594;52.052;8.354;2022-12-07T10:29:53;7.80;;;2.90;;
16954;SDS011;8594;52.052;8.354;2022-12-07T10:32:30;16.93;;;3.03;;
16954;SDS011;8594;52.052;8.354;2022-12-07T10:37:53;9.67;;;2.50;;
16954;SDS011;8594;52.052;8.354;2022-12-07T10:40:30;8.70;;;2.80;;
16954;SDS011;8594;52.052;8.354;2022-12-07T10:43:01;10.80;;;2.63;;
16954;SDS011;8594;52.052;8.354;2022-12-07T10:45:32;7.43;;;2.53;;
16954;SDS011;8594;52.052;8.354;2022-12-07T10:48:02;10.37;;;3.13;;
16954;SDS011;8594;52.052;8.354;2022-12-07T10:50:47;7.60;;;2.93;;
16954;SDS011;8594;52.052;8.354;2022-12-07T10:53:34;14.10;;;3.00;;
16954;SDS011;8594;52.052;8.354;2022-12-07T10:56:26;11.07;;;2.60;;
16954;SDS011;8594;52.052;8.354;2022-12-07T10:59:33;9.27;;;2.77;;
16954;SDS011;8594;52.052;8.354;2022-12-07T11:02:35;9.47;;;2.30;;
16954;SDS011;8594;52.052;8.354;2022-12-07T11:05:26;10.03;;;2.47;;
16954;SDS011;8594;52.052;8.354;2022-12-07T11:08:03;12.87;;;2.53;;
16954;SDS011;8594;52.052;8.354;2022-12-07T11:10:46;10.73;;;2.60;;
16954;SDS011;8594;52.052;8.354;2022-12-07T11:13:24;8.27;;;2.40;;
16954;SDS011;8594;52.052;8.354;2022-12-07T11:16:14;13.50;;;3.00;;
16954;SDS011;8594;52.052;8.354;2022-12-07T11:18:55;7.83;;;2.60;;
16954;SDS011;8594;52.052;8.354;2022-12-07T11:21:47;12.90;;;3.10;;
16954;SDS011;8594;52.052;8.354;2022-12-07T11:24:24;10.53;;;2.97;;
16954;SDS011;8594;52.052;8.354;2022-12-07T11:27:05;14.27;;;3.23;;
16954;SDS011;8594;52.052;8.354;2022-12-07T11:29:50;15.70;;;2.80;;
16954;SDS011;8594;52.052;8.354;2022-12-07T11:32:34;10.37;;;4.20;;
16954;SDS011;8594;52.052;8.354;2022-12-07T11:35:21;10.23;;;2.57;;
16954;SDS011;8594;52.052;8.354;2022-12-07T11:38:01;17.77;;;3.60;;
16954;SDS011;8594;52.052;8.354;2022-12-07T11:40:38;9.03;;;3.10;;
16954;SDS011;8594;52.052;8.354;2022-12-07T11:43:13;11.80;;;2.27;;
16954;SDS011;8594;52.052;8.354;2022-12-07T11:45:51;12.10;;;2.80;;
16954;SDS011;8594;52.052;8.354;2022-12-07T11:48:29;10.87;;;2.33;;
16954;SDS011;8594;52.052;8.354;2022-12-07T11:51:02;14.77;;;2.40;;
16954;SDS011;8594;52.052;8.354;2022-12-07T11:53:33;7.60;;;2.70;;
16954;SDS011;8594;52.052;8.354;2022-12-07T11:56:07;10.70;;;2.67;;
16954;SDS011;8594;52.052;8.354;2022-12-07T11:58:41;10.93;;;3.10;;
16954;SDS011;8594;52.052;8.354;2022-12-07T12:01:18;6.67;;;2.10;;
16954;SDS011;8594;52.052;8.354;2022-12-07T12:04:01;24.57;;;3.70;;
16954;SDS011;8594;52.052;8.354;2022-12-07T12:06:41;25.97;;;2.80;;
16954;SDS011;8594;52.052;8.354;2022-12-07T12:09:11;11.07;;;2.60;;
16954;SDS011;8594;52.052;8.354;2022-12-07T12:11:54;6.90;;;2.50;;
16954;SDS011;8594;52.052;8.354;2022-12-07T12:14:43;9.67;;;3.03;;
16954;SDS011;8594;52.052;8.354;2022-12-07T12:17:42;13.13;;;2.43;;
16954;SDS011;8594;52.052;8.354;2022-12-07T12:20:26;7.97;;;2.40;;
16954;SDS011;8594;52.052;8.354;2022-12-07T12:23:00;9.17;;;2.23;;
16954;SDS011;8594;52.052;8.354;2022-12-07T12:25:39;8.93;;;1.70;;
16954;SDS011;8594;52.052;8.354;2022-12-07T12:28:18;14.67;;;2.67;;
16954;SDS011;8594;52.052;8.354;2022-12-07T12:31:06;17.80;;;2.93;;
16954;SDS011;8594;52.052;8.354;2022-12-07T12:33:38;8.10;;;2.00;;
16954;SDS011;8594;52.052;8.354;2022-12-07T12:39:12;16.53;;;2.87;;
16954;SDS011;8594;52.052;8.354;2022-12-07T12:41:53;57.20;;;5.10;;
16954;SDS011;8594;52.052;8.354;2022-12-07T12:44:38;15.23;;;2.30;;
16954;SDS011;8594;52.052;8.354;2022-12-07T12:47:41;10.80;;;2.03;;
16954;SDS011;8594;52.052;8.354;2022-12-07T12:50:25;9.37;;;2.00;;
16954;SDS011;8594;52.052;8.354;2022-12-07T12:52:56;12.40;;;2.23;;
16954;SDS011;8594;52.052;8.354;2022-12-07T12:58:37;27.93;;;3.53;;
16954;SDS011;8594;52.052;8.354;2022-12-07T13:04:14;15.53;;;2.33;;
16954;SDS011;8594;52.052;8.354;2022-12-07T13:07:39;10.27;;;2.50;;
16954;SDS011;8594;52.052;8.354;2022-12-07T13:10:22;23.10;;;2.50;;
16954;SDS011;8594;52.052;8.354;2022-12-07T13:13:03;26.93;;;3.07;;
16954;SDS011;8594;52.052;8.354;2022-12-07T13:22:41;16.73;;;2.87;;
16954;SDS011;8594;52.052;8.354;2022-12-07T13:25:19;12.80;;;2.13;;
16954;SDS011;8594;52.052;8.354;2022-12-07T13:27:59;18.90;;;2.57;;
16954;SDS011;8594;52.052;8.354;2022-12-07T13:30:42;11.67;;;2.30;;
16954;SDS011;8594;52.052;8.354;2022-12-07T13:33:15;15.97;;;2.70;;
16954;SDS011;8594;52.052;8.354;2022-12-07T13:35:45;14.27;;;2.50;;
16954;SDS011;8594;52.052;8.354;2022-12-07T13:38:25;6.23;;;2.00;;
16954;SDS011;8594;52.052;8.354;2022-12-07T13:40:59;14.40;;;2.40;;
16954;SDS011;8594;52.052;8.354;2022-12-07T13:43:43;10.07;;;2.17;;
16954;SDS011;8594;52.052;8.354;2022-12-07T13:46:13;14.43;;;2.57;;
16954;SDS011;8594;52.052;8.354;2022-12-07T13:48:44;6.27;;;2.60;;
16954;SDS011;8594;52.052;8.354;2022-12-07T13:51:17;11.60;;;2.20;;
16954;SDS011;8594;52.052;8.354;2022-12-07T13:53:48;7.50;;;2.33;;
16954;SDS011;8594;52.052;8.354;2022-12-07T13:56:18;18.13;;;3.30;;
16954;SDS011;8594;52.052;8.354;2022-12-07T13:58:53;11.20;;;2.27;;
16954;SDS011;8594;52.052;8.354;2022-12-07T14:01:21;15.07;;;3.23;;
16954;SDS011;8594;52.052;8.354;2022-12-07T14:03:48;9.00;;;2.30;;
16954;SDS011;8594;52.052;8.354;2022-12-07T14:06:17;25.17;;;3.77;;
16954;SDS011;8594;52.052;8.354;2022-12-07T14:09:05;16.00;;;5.87;;
16954;SDS011;8594;52.052;8.354;2022-12-07T14:11:34;15.03;;;3.30;;
16954;SDS011;8594;52.052;8.354;2022-12-07T14:14:03;9.17;;;4.33;;
16954;SDS011;8594;52.052;8.354;2022-12-07T14:16:31;9.77;;;3.07;;
16954;SDS011;8594;52.052;8.354;2022-12-07T14:19:00;16.20;;;3.10;;
16954;SDS011;8594;52.052;8.354;2022-12-07T14:21:30;15.30;;;2.63;;
16954;SDS011;8594;52.052;8.354;2022-12-07T14:24:14;11.43;;;2.90;;
16954;SDS011;8594;52.052;8.354;2022-12-07T14:26:44;13.13;;;2.97;;
16954;SDS011;8594;52.052;8.354;2022-12-07T14:29:21;7.77;;;2.20;;
16954;SDS011;8594;52.052;8.354;2022-12-07T14:31:59;10.33;;;3.20;;
16954;SDS011;8594;52.052;8.354;2022-12-07T14:37:35;11.67;;;3.17;;
16954;SDS011;8594;52.052;8.354;2022-12-07T14:40:04;13.77;;;2.77;;
16954;SDS011;8594;52.052;8.354;2022-12-07T14:42:32;14.20;;;2.77;;
16954;SDS011;8594;52.052;8.354;2022-12-07T14:45:02;14.80;;;3.37;;
16954;SDS011;8594;52.052;8.354;2022-12-07T14:47:30;7.70;;;2.63;;
16954;SDS011;8594;52.052;8.354;2022-12-07T14:49:57;8.00;;;3.03;;
16954;SDS011;8594;52.052;8.354;2022-12-07T14:52:26;7.50;;;3.10;;
16954;SDS011;8594;52.052;8.354;2022-12-07T14:54:55;13.17;;;3.33;;
16954;SDS011;8594;52.052;8.354;2022-12-07T14:57:22;11.13;;;3.80;;
16954;SDS011;8594;52.052;8.354;2022-12-07T14:59:49;12.70;;;4.13;;
16954;SDS011;8594;52.052;8.354;2022-12-07T15:02:17;8.63;;;3.10;;
16954;SDS011;8594;52.052;8.354;2022-12-07T15:04:44;9.40;;;2.40;;
16954;SDS011;8594;52.052;8.354;2022-12-07T15:07:13;14.30;;;2.80;;
16954;SDS011;8594;52.052;8.354;2022-12-07T15:09:45;10.37;;;2.67;;
16954;SDS011;8594;52.052;8.354;2022-12-07T15:12:15;7.93;;;3.13;;
16954;SDS011;8594;52.052;8.354;2022-12-07T15:14:43;11.33;;;3.03;;
16954;SDS011;8594;52.052;8.354;2022-12-07T15:17:11;16.43;;;6.17;;
16954;SDS011;8594;52.052;8.354;2022-12-07T15:19:41;6.87;;;2.47;;
16954;SDS011;8594;52.052;8.354;2022-12-07T15:22:08;19.80;;;7.27;;
16954;SDS011;8594;52.052;8.354;2022-12-07T15:24:36;8.57;;;2.97;;
16954;SDS011;8594;52.052;8.354;2022-12-07T15:27:03;12.00;;;2.93;;
16954;SDS011;8594;52.052;8.354;2022-12-07T15:29:30;14.13;;;3.37;;
16954;SDS011;8594;52.052;8.354;2022-12-07T15:31:57;9.03;;;2.23;;
16954;SDS011;8594;52.052;8.354;2022-12-07T15:34:24;8.83;;;2.60;;
16954;SDS011;8594;52.052;8.354;2022-12-07T15:36:54;7.23;;;2.20;;
16954;SDS011;8594;52.052;8.354;2022-12-07T15:39:21;11.97;;;2.90;;
16954;SDS011;8594;52.052;8.354;2022-12-07T15:41:49;5.67;;;2.30;;